createdAt,value
2023-05-02T00:01:00.268Z,19.48
2023-05-02T00:03:29.599Z,19.46
2023-05-02T00:05:57.430Z,19.38
2023-05-02T00:08:25.457Z,19.29
2023-05-02T00:10:53.638Z,19.28
2023-05-02T00:13:20.970Z,19.25
2023-05-02T00:15:48.889Z,19.20
2023-05-02T00:18:17.097Z,19.13
2023-05-02T00:20:45.348Z,19.13
2023-05-02T00:23:14.552Z,19.00
2023-05-02T00:25:48.400Z,18.94
2023-05-02T00:28:16.459Z,18.88
2023-05-02T00:30:47.498Z,18.82
2023-05-02T00:33:16.079Z,18.83
2023-05-02T00:35:43.652Z,18.81
2023-05-02T00:38:11.106Z,18.91
2023-05-02T00:40:47.031Z,18.93
2023-05-02T00:43:15.346Z,18.86
2023-05-02T00:45:44.224Z,18.80
2023-05-02T00:48:12.278Z,18.77
2023-05-02T00:50:45.887Z,18.76
2023-05-02T00:53:13.653Z,18.75
2023-05-02T00:55:41.411Z,18.73
2023-05-02T00:58:17.840Z,18.71
2023-05-02T01:01:14.028Z,18.66
2023-05-02T01:04:06.817Z,18.61
2023-05-02T01:06:43.845Z,18.60
2023-05-02T01:09:36.946Z,18.55
2023-05-02T01:12:11.562Z,18.51
2023-05-02T01:14:43.644Z,18.45
2023-05-02T01:17:14.138Z,18.40
2023-05-02T01:19:44.313Z,18.41
2023-05-02T01:22:12.329Z,18.39
2023-05-02T01:25:01.774Z,18.39
2023-05-02T01:27:44.398Z,18.34
2023-05-02T01:30:13.535Z,18.30
2023-05-02T01:32:42.817Z,18.29
2023-05-02T01:35:12.072Z,18.22
2023-05-02T01:37:40.025Z,18.24
2023-05-02T01:40:11.366Z,18.23
2023-05-02T01:42:41.814Z,18.15
2023-05-02T01:45:10.085Z,18.05
2023-05-02T01:47:37.875Z,18.10
2023-05-02T01:50:12.858Z,18.08
2023-05-02T01:53:19.468Z,18.10
2023-05-02T01:55:47.089Z,18.03
2023-05-02T01:58:15.468Z,18.04
2023-05-02T02:00:45.902Z,17.96
2023-05-02T02:03:14.356Z,17.97
2023-05-02T02:05:42.353Z,17.89
2023-05-02T02:08:10.044Z,17.84
2023-05-02T02:10:42.261Z,17.84
2023-05-02T02:13:20.519Z,17.83
2023-05-02T02:15:49.815Z,17.77
2023-05-02T02:18:43.988Z,17.72
2023-05-02T02:21:12.254Z,17.69
2023-05-02T02:23:40.161Z,17.71
2023-05-02T02:26:07.722Z,17.58
2023-05-02T02:28:35.540Z,17.71
2023-05-02T02:31:03.068Z,17.71
2023-05-02T02:33:31.221Z,17.72
2023-05-02T02:36:03.440Z,17.79
2023-05-02T02:38:38.451Z,17.79
2023-05-02T02:41:28.357Z,17.78
2023-05-02T02:44:25.916Z,17.74
2023-05-02T02:47:17.007Z,17.75
2023-05-02T02:50:40.122Z,17.72
2023-05-02T02:53:10.290Z,17.66
2023-05-02T02:56:14.308Z,17.69
2023-05-02T02:59:04.520Z,17.66
2023-05-02T03:01:33.910Z,17.65
2023-05-02T03:04:01.858Z,17.68
2023-05-02T03:06:29.670Z,17.65
2023-05-02T03:08:57.360Z,17.55
2023-05-02T03:11:24.922Z,17.54
2023-05-02T03:13:53.673Z,17.50
2023-05-02T03:16:35.172Z,17.48
2023-05-02T03:19:05.710Z,17.48
2023-05-02T03:21:33.702Z,17.44
2023-05-02T03:24:03.266Z,17.47
2023-05-02T03:26:32.415Z,17.48
2023-05-02T03:29:00.111Z,17.39
2023-05-02T03:31:29.220Z,17.42
2023-05-02T03:33:57.716Z,17.35
2023-05-02T03:36:26.756Z,17.32
2023-05-02T03:38:54.525Z,17.20
2023-05-02T03:41:22.780Z,17.22
2023-05-02T03:43:51.728Z,17.25
2023-05-02T03:46:19.386Z,17.19
2023-05-02T03:48:48.443Z,17.19
2023-05-02T03:51:16.289Z,17.18
2023-05-02T03:53:44.410Z,17.12
2023-05-02T03:56:12.222Z,17.16
2023-05-02T03:58:41.383Z,17.13
2023-05-02T04:01:17.259Z,17.12
2023-05-02T04:03:45.458Z,17.11
2023-05-02T04:06:14.496Z,17.10
2023-05-02T04:08:43.785Z,17.10
2023-05-02T04:11:12.727Z,17.13
2023-05-02T04:13:40.182Z,17.16
2023-05-02T04:16:08.388Z,17.10
2023-05-02T04:18:36.121Z,17.11
2023-05-02T04:21:05.184Z,17.07
2023-05-02T04:23:34.495Z,17.05
2023-05-02T04:26:02.843Z,17.03
2023-05-02T04:28:33.720Z,17.03
2023-05-02T04:31:03.147Z,16.95
2023-05-02T04:33:31.966Z,16.96
2023-05-02T04:35:59.603Z,16.95
2023-05-02T04:38:29.449Z,16.91
2023-05-02T04:41:00.835Z,16.96
2023-05-02T04:43:37.017Z,16.94
2023-05-02T04:46:07.058Z,16.85
2023-05-02T04:48:35.150Z,16.90
2023-05-02T04:51:03.068Z,16.86
2023-05-02T04:53:30.564Z,16.84
2023-05-02T04:56:00.011Z,16.83
2023-05-02T04:58:31.888Z,16.81
2023-05-02T05:00:59.322Z,16.80
2023-05-02T05:03:27.282Z,16.82
2023-05-02T05:05:56.518Z,16.79
2023-05-02T05:08:25.923Z,16.78
2023-05-02T05:10:53.754Z,16.76
2023-05-02T05:13:23.481Z,16.70
2023-05-02T05:15:52.157Z,16.74
2023-05-02T05:18:19.855Z,16.72
2023-05-02T05:20:48.777Z,16.69
2023-05-02T05:23:17.635Z,16.60
2023-05-02T05:25:45.832Z,16.66
2023-05-02T05:28:13.572Z,16.63
2023-05-02T05:30:41.643Z,16.61
2023-05-02T05:33:09.660Z,16.56
2023-05-02T05:35:38.995Z,16.57
2023-05-02T05:38:09.092Z,16.57
2023-05-02T05:40:38.407Z,16.57
2023-05-02T05:43:05.800Z,16.52
2023-05-02T05:45:34.655Z,16.42
2023-05-02T05:48:02.347Z,16.51
2023-05-02T05:50:30.355Z,16.52
2023-05-02T05:52:58.125Z,16.49
2023-05-02T05:55:25.697Z,16.49
2023-05-02T05:57:53.438Z,16.53
2023-05-02T06:00:21.028Z,16.50
2023-05-02T06:02:49.547Z,16.52
2023-05-02T06:05:17.160Z,16.56
2023-05-02T06:07:44.686Z,16.58
2023-05-02T06:10:12.329Z,16.56
2023-05-02T06:12:41.344Z,16.57
2023-05-02T06:15:11.023Z,16.65
2023-05-02T06:17:38.641Z,16.70
2023-05-02T06:20:07.932Z,16.69
2023-05-02T06:22:35.815Z,16.71
2023-05-02T06:25:06.619Z,16.69
2023-05-02T06:27:35.499Z,16.74
2023-05-02T06:30:04.349Z,16.81
2023-05-02T06:32:34.972Z,16.86
2023-05-02T06:35:03.050Z,16.94
2023-05-02T06:37:35.554Z,17.02
2023-05-02T06:40:05.709Z,17.11
2023-05-02T06:42:35.274Z,17.24
2023-05-02T06:45:02.989Z,17.32
2023-05-02T06:47:40.533Z,17.47
2023-05-02T06:50:09.103Z,17.57
2023-05-02T06:52:39.441Z,17.68
2023-05-02T06:55:07.841Z,17.73
2023-05-02T06:57:37.724Z,17.83
2023-05-02T07:00:06.490Z,17.84
2023-05-02T07:02:34.126Z,18.02
2023-05-02T07:05:03.323Z,18.09
2023-05-02T07:07:31.958Z,18.18
2023-05-02T07:10:00.573Z,18.31
2023-05-02T07:12:29.322Z,18.37
2023-05-02T07:14:56.997Z,18.43
2023-05-02T07:17:26.437Z,18.51
2023-05-02T07:19:54.291Z,18.67
2023-05-02T07:22:22.048Z,18.81
2023-05-02T07:24:50.222Z,18.91
2023-05-02T07:27:20.112Z,19.11
2023-05-02T07:29:48.464Z,19.33
2023-05-02T07:32:17.520Z,19.55
2023-05-02T07:34:47.239Z,19.78
2023-05-02T07:37:16.375Z,20.00
2023-05-02T07:39:44.375Z,20.19
2023-05-02T07:42:12.526Z,20.32
2023-05-02T07:44:40.557Z,20.48
2023-05-02T07:47:10.005Z,20.58
2023-05-02T07:49:37.600Z,20.72
2023-05-02T07:52:07.377Z,20.82
2023-05-02T07:54:36.479Z,20.91
2023-05-02T07:57:06.511Z,21.00
2023-05-02T07:59:34.030Z,21.09
2023-05-02T08:02:02.126Z,21.17
2023-05-02T08:04:30.874Z,21.27
2023-05-02T08:06:59.858Z,21.35
2023-05-02T08:09:28.015Z,21.51
2023-05-02T08:11:55.542Z,21.59
2023-05-02T08:14:24.152Z,21.74
2023-05-02T08:16:52.180Z,21.75
2023-05-02T08:19:19.639Z,21.94
2023-05-02T08:21:48.092Z,22.00
2023-05-02T08:24:16.224Z,22.09
2023-05-02T08:26:46.129Z,22.18
2023-05-02T08:29:13.653Z,22.30
2023-05-02T08:31:42.859Z,22.42
2023-05-02T08:34:10.661Z,22.53
2023-05-02T08:36:39.446Z,22.62
2023-05-02T08:39:08.779Z,22.72
2023-05-02T08:41:37.598Z,22.86
2023-05-02T08:44:07.228Z,23.00
2023-05-02T08:46:38.892Z,23.11
2023-05-02T08:49:08.303Z,23.24
2023-05-02T08:51:36.668Z,23.35
2023-05-02T08:54:06.398Z,23.51
2023-05-02T08:56:35.190Z,23.64
2023-05-02T08:59:04.561Z,23.76
2023-05-02T09:01:33.586Z,23.82
2023-05-02T09:04:03.497Z,23.94
2023-05-02T09:06:31.495Z,24.06
2023-05-02T09:09:01.814Z,24.18
2023-05-02T09:12:03.713Z,24.34
2023-05-02T09:14:33.533Z,24.41
2023-05-02T09:17:02.110Z,24.62
2023-05-02T09:19:30.016Z,24.71
2023-05-02T09:22:04.623Z,24.85
2023-05-02T09:24:34.777Z,25.00
2023-05-02T09:27:04.793Z,25.13
2023-05-02T09:29:38.642Z,25.25
2023-05-02T09:32:07.478Z,25.41
2023-05-02T09:34:35.109Z,25.59
2023-05-02T09:37:07.469Z,25.74
2023-05-02T09:39:35.312Z,25.87
2023-05-02T09:42:04.672Z,25.93
2023-05-02T09:44:41.693Z,26.02
2023-05-02T09:47:10.820Z,26.11
2023-05-02T09:49:42.185Z,26.24
2023-05-02T09:52:17.639Z,26.36
2023-05-02T09:54:51.539Z,26.48
2023-05-02T09:57:19.644Z,26.56
2023-05-02T10:14:52.939Z,27.00
2023-05-02T10:17:23.760Z,27.13
2023-05-02T10:20:09.339Z,27.28
2023-05-02T10:22:37.862Z,27.41
2023-05-02T10:25:07.859Z,27.47
2023-05-02T10:27:35.756Z,27.52
2023-05-02T10:30:18.479Z,27.58
2023-05-02T10:32:48.747Z,27.69
2023-05-02T10:35:17.626Z,27.62
2023-05-02T10:37:47.179Z,27.72
2023-05-02T10:40:16.554Z,27.79
2023-05-02T10:42:52.256Z,27.85
2023-05-02T10:45:40.435Z,27.87
2023-05-02T10:48:21.652Z,27.96
2023-05-02T10:50:53.408Z,28.07
2023-05-02T10:53:27.459Z,28.22
2023-05-02T10:56:15.180Z,28.30
2023-05-02T10:58:47.579Z,28.31
2023-05-02T11:01:28.662Z,28.37
2023-05-02T11:04:00.503Z,28.40
2023-05-02T11:06:30.552Z,28.43
2023-05-02T11:09:16.883Z,28.52
2023-05-02T11:14:40.003Z,28.48
2023-05-02T11:17:10.594Z,28.48
2023-05-02T11:19:44.757Z,28.62
2023-05-02T11:22:22.119Z,28.73
2023-05-02T11:24:50.223Z,28.74
2023-05-02T11:27:30.683Z,28.85
2023-05-02T11:30:11.246Z,28.99
2023-05-02T11:32:48.813Z,29.21
2023-05-02T11:35:21.896Z,29.36
2023-05-02T11:38:04.400Z,29.47
2023-05-02T11:40:33.722Z,29.60
2023-05-02T11:43:01.761Z,29.80
2023-05-02T11:45:43.874Z,29.87
2023-05-02T11:48:17.572Z,29.84
2023-05-02T11:51:08.350Z,29.83
2023-05-02T11:53:36.160Z,29.76
2023-05-02T11:56:05.093Z,29.88
2023-05-02T11:58:36.236Z,30.07
2023-05-02T12:01:18.188Z,30.19
2023-05-02T12:06:31.944Z,30.35
2023-05-02T12:09:11.922Z,30.38
2023-05-02T12:11:41.850Z,30.27
2023-05-02T12:14:34.129Z,30.34
2023-05-02T12:17:04.289Z,30.44
2023-05-02T12:19:34.016Z,30.43
2023-05-02T12:22:02.249Z,30.36
2023-05-02T12:24:30.921Z,30.25
2023-05-02T12:27:15.177Z,30.15
2023-05-02T12:29:48.126Z,30.13
2023-05-02T12:32:17.529Z,30.09
2023-05-02T12:34:45.050Z,30.16
2023-05-02T12:37:13.244Z,30.21
2023-05-02T12:39:43.159Z,30.27
2023-05-02T12:42:13.543Z,30.38
2023-05-02T12:44:43.049Z,30.47
2023-05-02T12:47:18.137Z,30.46
2023-05-02T12:49:57.662Z,30.42
2023-05-02T12:52:52.041Z,30.44
2023-05-02T12:55:32.662Z,30.45
2023-05-02T13:00:53.701Z,30.51
2023-05-02T13:03:23.390Z,30.53
2023-05-02T13:05:58.505Z,30.56
2023-05-02T13:50:10.468Z,31.36
2023-05-02T13:52:47.743Z,31.38
2023-05-02T13:55:22.958Z,31.35
2023-05-02T13:57:51.463Z,31.37
2023-05-02T14:00:23.005Z,31.43
2023-05-02T14:02:57.655Z,31.41
2023-05-02T14:05:25.515Z,31.35
2023-05-02T14:07:52.955Z,31.39
2023-05-02T14:10:21.546Z,31.44
2023-05-02T14:12:55.888Z,31.48
2023-05-02T14:15:25.886Z,31.51
2023-05-02T14:18:02.628Z,31.60
2023-05-02T14:20:32.132Z,31.64
2023-05-02T14:23:13.970Z,31.73
2023-05-02T14:25:46.325Z,31.77
2023-05-02T14:28:14.966Z,31.75
2023-05-02T14:30:42.404Z,31.82
2023-05-02T14:33:09.838Z,31.83
2023-05-02T14:35:38.220Z,31.81
2023-05-02T14:53:11.418Z,31.63
2023-05-02T14:55:41.683Z,31.54
2023-05-02T14:58:11.558Z,31.39
2023-05-02T15:00:49.901Z,31.27
2023-05-02T15:03:26.434Z,31.11
2023-05-02T15:06:03.223Z,31.00
2023-05-02T15:08:35.128Z,31.03
2023-05-02T15:11:06.406Z,31.00
2023-05-02T15:13:37.759Z,31.11
2023-05-02T16:02:56.229Z,29.55
2023-05-02T16:05:49.463Z,29.66
2023-05-02T16:08:28.660Z,29.71
2023-05-02T16:11:04.395Z,29.71
2023-05-02T16:13:32.263Z,29.63
2023-05-02T16:16:08.681Z,29.55
2023-05-02T16:18:40.428Z,29.41
2023-05-02T16:21:08.775Z,29.33
2023-05-02T16:23:50.542Z,29.13
2023-05-02T16:26:22.248Z,28.99
2023-05-02T16:28:59.460Z,28.97
2023-05-02T16:39:21.956Z,28.45
2023-05-02T16:41:52.483Z,28.41
2023-05-02T16:44:26.150Z,28.48
2023-05-02T16:46:54.168Z,28.59
2023-05-02T16:49:29.767Z,28.69
2023-05-02T16:52:29.200Z,28.63
2023-05-02T16:55:14.736Z,28.41
2023-05-02T16:57:43.645Z,28.25
2023-05-02T17:00:28.371Z,28.12
2023-05-02T17:17:59.703Z,27.48
2023-05-02T17:20:30.116Z,27.74
2023-05-02T17:23:04.484Z,28.15
2023-05-02T17:25:58.865Z,28.41
2023-05-02T17:28:39.086Z,28.33
2023-05-02T17:31:15.381Z,28.24
2023-05-02T17:33:53.305Z,28.21
2023-05-02T17:36:21.665Z,28.28
2023-05-02T17:38:54.154Z,28.56
2023-05-02T17:41:34.749Z,28.82
2023-05-02T17:44:07.319Z,28.93
2023-05-02T17:46:39.352Z,28.92
2023-05-02T17:49:07.807Z,28.69
2023-05-02T17:51:38.304Z,28.61
2023-05-02T22:07:40.414Z,22.07
2023-05-02T22:10:08.753Z,21.94
2023-05-02T22:12:36.549Z,21.88
2023-05-02T22:15:10.800Z,21.88
2023-05-02T22:17:38.414Z,21.82
2023-05-02T22:20:08.754Z,21.80
2023-05-02T22:25:23.467Z,21.67
2023-05-02T22:27:53.545Z,21.61
2023-05-02T22:30:21.296Z,21.60
2023-05-02T22:32:48.958Z,21.60
2023-05-02T22:35:17.796Z,21.56
2023-05-02T22:37:45.471Z,21.56
2023-05-02T22:40:16.050Z,21.52
2023-05-02T22:42:43.799Z,21.55
2023-05-02T22:45:12.573Z,21.52
2023-05-02T22:47:42.712Z,21.52
2023-05-02T22:50:12.088Z,21.44
2023-05-02T22:52:40.197Z,21.36
2023-05-02T22:55:09.801Z,21.30
2023-05-02T22:57:39.368Z,21.28
2023-05-02T23:00:13.158Z,21.30
2023-05-02T23:02:42.157Z,21.26
2023-05-02T23:05:10.999Z,21.24
2023-05-02T23:07:38.751Z,21.16
2023-05-02T23:10:09.622Z,21.07
2023-05-02T23:12:37.297Z,20.99
2023-05-02T23:15:05.353Z,20.93
2023-05-02T23:17:33.638Z,20.88
2023-05-02T23:20:01.523Z,20.89
2023-05-02T23:22:32.170Z,20.92
2023-05-02T23:27:46.499Z,21.05
2023-05-02T23:30:14.436Z,21.08
2023-05-02T23:32:42.339Z,21.10
2023-05-02T23:35:12.202Z,21.10
2023-05-02T23:37:41.023Z,21.06
2023-05-02T23:40:12.942Z,21.05
2023-05-02T23:42:40.657Z,21.06
2023-05-02T23:45:09.321Z,21.09
2023-05-02T23:47:38.985Z,21.08
2023-05-02T23:50:07.338Z,21.08
2023-05-02T23:52:35.106Z,21.07
2023-05-02T23:55:03.233Z,21.07
2023-05-02T23:57:31.355Z,21.07
2023-05-02T23:59:59.047Z,21.09
